Gaars Mill, Louisiana
Current Conditions -  °F | °C
As of 8:35 PM on Wednesday 22 Oct 2014 (Local Time) from KRSN Reporting Station
Clear Clear  
Wind Chill: 14°   Ceiling: Unl
Heat Index: 14°   Visibility: 10mi
Dew Point: 13°   Wind: 0mph
Humidity: 98%   Direction: NA
Pressure: 30.17"   Gusts: NA
Location:  32.0727°N, 92.6697°W
Report Text: KRSN 230135Z AUTO 00000KT 10SM CLR 14/13 A3017 RMK AO2 T01350132
Loading
Personal Weather Stations






























Interactive Weather Map
Tropical Storm Tracking
New forecast layout! Learn more

10-Day Weather Forecast

Advertisements
Track Severe Weather on mobile